Time;durP1;ratioP1;P1;durP2;ratioP2;P2;SDS_P1;SDS_P2;PMS_P1;PMS_P2;Temp;Humidity;BMP_temperature;BMP_pressure;BME280_temperature;BME280_humidity;BME280_pressure;Samples;Min_cycle;Max_cycle;Signal;HPM_P1;HPM_P2
2023/08/26 00:00:15;;;;;;;7.00;3.50;;;;;;;26.08;54.03;99414.16;7736890;32;37116;-82
2023/08/26 00:04:33;;;;;;;7.45;4.00;;;;;;;26.07;54.05;99398.56;7735569;32;40222;-82
2023/08/26 00:08:52;;;;;;;6.57;3.72;;;;;;;25.85;54.82;99395.56;7737310;32;39998;-83
2023/08/26 00:13:08;;;;;;;9.98;3.58;;;;;;;25.82;54.89;99376.78;7736473;32;37952;-83
2023/08/26 00:17:24;;;;;;;7.28;3.87;;;;;;;25.73;55.15;99367.13;7755444;32;37361;-82
2023/08/26 00:21:41;;;;;;;9.05;3.85;;;;;;;25.78;54.91;99372.34;7763259;32;39392;-83
2023/08/26 00:25:57;;;;;;;5.93;4.10;;;;;;;25.79;54.92;99376.78;7763015;32;41579;-83
2023/08/26 00:30:14;;;;;;;8.07;4.28;;;;;;;25.66;55.30;99379.03;7761602;32;38501;-83
2023/08/26 00:34:30;;;;;;;7.18;3.97;;;;;;;25.74;55.20;99383.50;7762919;32;37845;-83
2023/08/26 00:38:46;;;;;;;8.63;4.03;;;;;;;25.57;56.23;99395.28;7761860;32;39471;-83
2023/08/26 00:43:11;;;;;;;10.55;4.40;;;;;;;25.59;56.05;99399.28;7762571;32;40029;-83
2023/08/26 00:47:27;;;;;;;9.30;4.70;;;;;;;25.54;56.75;99410.00;7762480;32;37876;-83
2023/08/26 00:51:44;;;;;;;8.85;4.30;;;;;;;25.53;56.79;99411.22;7762464;32;37724;-83
2023/08/26 00:56:00;;;;;;;8.25;4.30;;;;;;;25.51;57.09;99405.19;7762799;32;39262;-83
2023/08/26 01:00:17;;;;;;;9.05;4.75;;;;;;;25.39;57.35;99423.81;7766460;32;41638;-82
2023/08/26 01:04:34;;;;;;;6.90;4.50;;;;;;;25.40;57.29;99450.50;7765128;32;37665;-83
2023/08/26 01:08:51;;;;;;;9.35;4.00;;;;;;;25.34;57.57;99454.84;7747669;32;37185;-83
2023/08/26 01:13:11;;;;;;;10.80;3.92;;;;;;;25.30;57.46;99453.97;7739247;32;39253;-83
2023/08/26 01:17:29;;;;;;;8.75;3.78;;;;;;;25.36;57.19;99444.09;7738058;32;41281;-83
2023/08/26 01:21:49;;;;;;;8.13;4.35;;;;;;;25.35;57.34;99439.69;7739073;32;38002;-83
2023/08/26 01:26:06;;;;;;;7.15;3.78;;;;;;;25.51;56.03;99413.56;7739217;32;37936;-83
2023/08/26 01:30:25;;;;;;;8.13;4.03;;;;;;;25.61;54.74;99394.16;7739150;32;39327;-83
2023/08/26 01:34:43;;;;;;;7.50;3.70;;;;;;;25.28;55.65;99426.47;7739803;32;40923;-83
2023/08/26 01:39:00;;;;;;;9.05;3.85;;;;;;;25.33;55.69;99422.53;7738881;32;37792;-83
2023/08/26 01:43:17;;;;;;;9.57;4.10;;;;;;;25.21;56.05;99406.00;7738931;32;37948;-83
2023/08/26 01:47:33;;;;;;;6.55;4.10;;;;;;;25.32;55.58;99407.00;7738891;32;39943;-83
2023/08/26 01:51:50;;;;;;;12.45;4.50;;;;;;;25.37;56.12;99397.44;7738728;32;40593;-83
2023/08/26 01:56:06;;;;;;;8.45;4.30;;;;;;;25.29;57.92;99396.59;7738751;32;38727;-83
2023/08/26 02:00:23;;;;;;;9.55;4.05;;;;;;;25.23;57.81;99392.50;7738803;32;37113;-83
2023/08/26 02:04:39;;;;;;;9.65;4.65;;;;;;;25.27;57.00;99394.16;7739405;32;40198;-83
2023/08/26 02:08:56;;;;;;;9.52;4.20;;;;;;;25.21;56.96;99390.06;7737890;32;40801;-83
2023/08/26 02:13:12;;;;;;;8.35;4.20;;;;;;;25.03;57.82;99381.50;7738560;32;37515;-83
2023/08/26 02:17:29;;;;;;;7.78;4.65;;;;;;;25.15;57.26;99376.84;7738446;32;37206;-83
2023/08/26 02:21:45;;;;;;;18.27;5.18;;;;;;;25.04;57.60;99380.34;7738417;32;39373;-83
2023/08/26 02:26:02;;;;;;;9.38;4.53;;;;;;;25.05;57.49;99372.75;7738421;32;40544;-83
2023/08/26 02:30:18;;;;;;;7.78;4.50;;;;;;;25.00;57.86;99384.25;7738260;32;38683;-83
2023/08/26 02:34:37;;;;;;;10.00;4.70;;;;;;;24.97;57.98;99379.44;7739112;32;37842;-83
2023/08/26 02:38:53;;;;;;;12.73;4.40;;;;;;;25.18;57.64;99378.88;7737154;32;39031;-83
2023/08/26 02:43:10;;;;;;;7.68;4.47;;;;;;;24.92;58.37;99374.97;7738307;32;40688;-83
2023/08/26 02:47:26;;;;;;;11.07;4.90;;;;;;;24.88;58.09;99388.09;7738134;32;37707;-83
2023/08/26 02:51:42;;;;;;;7.60;4.07;;;;;;;25.06;57.45;99383.53;7738168;32;37123;-83
2023/08/26 02:56:00;;;;;;;8.48;4.85;;;;;;;25.00;58.16;99385.03;7738152;32;40013;-83
2023/08/26 03:00:16;;;;;;;9.45;5.07;;;;;;;24.88;58.31;99388.09;7737993;32;39661;-82
2023/08/26 03:04:34;;;;;;;8.77;4.68;;;;;;;24.81;58.60;99377.63;7737830;32;38743;-83
2023/08/26 03:08:50;;;;;;;12.43;5.12;;;;;;;24.89;58.71;99384.13;7737887;32;36984;-83
2023/08/26 03:13:07;;;;;;;9.30;4.87;;;;;;;24.87;58.75;99380.88;7737762;32;40193;-83
2023/08/26 03:17:23;;;;;;;8.65;4.37;;;;;;;24.92;57.83;99373.00;7737564;32;40672;-83
2023/08/26 03:21:39;;;;;;;10.73;4.82;;;;;;;24.85;57.02;99377.69;7737743;32;38703;-86
2023/08/26 03:25:56;;;;;;;10.45;4.75;;;;;;;24.75;56.88;99373.59;7737622;32;36885;-86
2023/08/26 03:30:12;;;;;;;9.32;4.35;;;;;;;24.85;56.74;99374.91;7738230;32;39830;-86
2023/08/26 03:34:29;;;;;;;9.82;4.75;;;;;;;24.61;57.72;99376.97;7737442;32;40039;-86
2023/08/26 03:38:45;;;;;;;8.15;4.20;;;;;;;24.70;57.49;99383.06;7737213;32;37835;-86
2023/08/26 03:43:02;;;;;;;10.55;5.35;;;;;;;24.65;57.70;99375.03;7737314;32;37029;-86
2023/08/26 03:47:19;;;;;;;10.80;4.72;;;;;;;24.65;57.91;99385.41;7737249;32;39343;-86
2023/08/26 03:51:36;;;;;;;10.50;4.78;;;;;;;24.77;57.43;99387.12;7737066;32;40673;-85
2023/08/26 03:55:53;;;;;;;9.00;4.68;;;;;;;24.81;57.50;99385.19;7736952;32;37618;-85
2023/08/26 04:00:10;;;;;;;8.73;4.90;;;;;;;24.50;58.65;99379.56;7736916;32;37102;-85
2023/08/26 04:04:26;;;;;;;8.75;4.40;;;;;;;24.43;59.16;99389.81;7736681;32;39768;-86
2023/08/26 04:08:42;;;;;;;8.52;4.60;;;;;;;24.64;58.41;99383.78;7761478;32;39970;-86
2023/08/26 04:13:25;;;;;;;9.32;4.93;;;;;;;24.49;59.16;99388.28;7763363;32;37854;-86
2023/08/26 04:17:41;;;;;;;9.48;4.95;;;;;;;24.51;59.38;99394.31;7761695;32;37696;-85
2023/08/26 04:21:59;;;;;;;9.25;4.78;;;;;;;24.46;59.86;99378.72;7762145;32;39351;-85
2023/08/26 04:26:16;;;;;;;9.38;4.85;;;;;;;24.49;60.17;99386.34;7755726;32;40612;-85
2023/08/26 04:30:32;;;;;;;12.68;5.15;;;;;;;24.57;60.23;99390.03;7737159;32;37595;-85
2023/08/26 04:34:48;;;;;;;10.05;4.82;;;;;;;24.64;60.13;99386.56;7739768;32;38074;-75
2023/08/26 04:39:10;;;;;;;8.13;5.18;;;;;;;24.64;60.27;99384.56;7739869;32;39380;-72
2023/08/26 04:43:28;;;;;;;8.50;5.05;;;;;;;24.83;59.40;99386.41;7739744;32;39907;-72
2023/08/26 04:47:44;;;;;;;9.27;5.25;;;;;;;24.85;59.56;99384.09;7739520;32;38406;-73
2023/08/26 04:52:01;;;;;;;7.45;5.05;;;;;;;24.93;59.36;99390.53;7739454;32;37946;-71
2023/08/26 04:56:17;;;;;;;7.90;4.70;;;;;;;24.82;59.90;99392.38;7739389;32;40333;-71
2023/08/26 05:00:33;;;;;;;9.52;4.90;;;;;;;24.81;59.98;99393.56;7739314;32;40814;-71
2023/08/26 05:04:50;;;;;;;12.32;5.20;;;;;;;25.00;59.33;99399.00;7739283;32;38685;-69
2023/08/26 05:09:07;;;;;;;7.47;4.95;;;;;;;25.19;58.83;99391.66;7739294;32;37379;-71
2023/08/26 05:13:23;;;;;;;12.02;5.93;;;;;;;25.15;59.04;99390.78;7739129;32;40115;-70
2023/08/26 05:17:39;;;;;;;10.18;5.80;;;;;;;25.17;59.25;99377.28;7747531;32;40947;-72
2023/08/26 05:21:57;;;;;;;11.90;5.72;;;;;;;25.00;60.38;99373.91;7739004;32;38488;-71
2023/08/26 05:26:14;;;;;;;11.20;6.37;;;;;;;25.08;60.24;99375.59;7739319;32;37959;-72
2023/08/26 05:30:30;;;;;;;13.40;5.40;;;;;;;24.79;61.59;99380.00;7758644;32;39025;-73
2023/08/26 05:34:46;;;;;;;9.73;5.90;;;;;;;24.74;61.59;99380.34;7744709;32;40147;-72
2023/08/26 05:39:03;;;;;;;10.45;5.62;;;;;;;24.77;61.52;99381.53;7738845;32;37858;-70
2023/08/26 05:43:19;;;;;;;10.35;5.10;;;;;;;25.11;60.32;99374.84;7737745;32;37113;-71
2023/08/26 05:47:36;;;;;;;13.50;5.78;;;;;;;25.21;60.09;99378.91;7738903;32;39574;-71
2023/08/26 05:51:52;;;;;;;10.52;5.60;;;;;;;24.88;61.07;99385.28;7738614;32;40133;-71
2023/08/26 05:56:09;;;;;;;10.10;5.53;;;;;;;24.88;61.45;99382.50;7737408;32;37977;-73
2023/08/26 06:00:26;;;;;;;12.37;5.95;;;;;;;25.09;61.05;99377.22;7738687;32;38070;-74
2023/08/26 06:04:42;;;;;;;11.27;5.78;;;;;;;24.95;61.18;99393.75;7739100;32;38157;-73
2023/08/26 06:08:58;;;;;;;9.23;5.40;;;;;;;25.06;61.29;99397.47;7738552;32;39948;-72
2023/08/26 06:13:14;;;;;;;11.20;5.62;;;;;;;25.11;61.19;99391.56;7760316;32;37984;-72
2023/08/26 06:17:32;;;;;;;10.38;5.72;;;;;;;25.33;60.29;99389.03;7765588;32;37871;-73
2023/08/26 06:21:48;;;;;;;11.48;5.60;;;;;;;25.29;60.57;99397.38;7765890;32;37791;-74
2023/08/26 06:26:04;;;;;;;11.48;5.25;;;;;;;25.70;58.98;99398.59;7765427;32;40911;-75
2023/08/26 06:30:22;;;;;;;16.83;5.53;;;;;;;25.85;58.60;99403.12;7765484;32;38483;-73
2023/08/26 06:34:38;;;;;;;8.38;4.97;;;;;;;26.06;57.80;99408.16;7765244;32;37081;-72
2023/08/26 06:38:54;;;;;;;10.27;5.00;;;;;;;26.37;57.34;99397.59;7765711;32;38223;-73
2023/08/26 06:43:11;;;;;;;12.23;5.18;;;;;;;26.47;55.99;99408.03;7765129;32;40860;-72
2023/08/26 06:47:27;;;;;;;8.27;4.90;;;;;;;26.93;55.27;99396.38;7764881;32;37951;-72
2023/08/26 06:51:43;;;;;;;12.52;4.85;;;;;;;26.96;55.31;99400.38;7764971;32;37824;-71
2023/08/26 06:56:00;;;;;;;14.13;4.50;;;;;;;27.08;53.59;99396.41;7764582;32;40675;-73
2023/08/26 07:00:18;;;;;;;9.38;4.07;;;;;;;27.41;51.45;99397.38;7764917;32;40618;-73
2023/08/26 07:04:34;;;;;;;7.68;4.05;;;;;;;27.77;49.81;99391.84;7761213;32;37655;-72
2023/08/26 07:08:51;;;;;;;8.45;4.47;;;;;;;28.42;48.91;99387.88;7750463;32;37171;-73
2023/08/26 07:13:07;;;;;;;16.02;4.43;;;;;;;28.40;49.03;99395.06;7764587;32;39990;-72
2023/08/26 07:17:25;;;;;;;7.93;4.32;;;;;;;28.47;48.40;99395.84;7763927;32;39759;-71
2023/08/26 07:21:42;;;;;;;14.15;4.43;;;;;;;28.45;49.58;99389.84;7750635;32;38075;-72
2023/08/26 07:26:00;;;;;;;11.35;5.22;;;;;;;28.71;47.75;99381.44;7749792;32;37575;-71
2023/08/26 07:30:18;;;;;;;8.73;4.53;;;;;;;28.76;49.84;99392.22;7749829;32;38737;-72
2023/08/26 07:34:34;;;;;;;8.95;4.72;;;;;;;28.69;49.88;99401.47;7750600;32;40692;-71
2023/08/26 07:38:50;;;;;;;9.02;4.47;;;;;;;29.09;48.40;99402.12;7749526;32;38718;-72
2023/08/26 07:43:07;;;;;;;8.55;4.40;;;;;;;29.13;48.33;99402.09;7749145;32;37908;-71
2023/08/26 07:47:23;;;;;;;8.50;4.47;;;;;;;29.50;45.45;99392.34;7761488;32;39313;-78
2023/08/26 07:51:40;;;;;;;10.43;3.87;;;;;;;29.98;44.41;99383.19;7764073;32;41377;-87
2023/08/26 07:55:56;;;;;;;7.60;4.05;;;;;;;30.46;42.53;99390.00;7763889;32;38058;-88
2023/08/26 08:00:13;;;;;;;8.40;4.05;;;;;;;30.54;42.97;99385.91;7763838;32;37022;-88
2023/08/26 08:04:30;;;;;;;12.50;4.62;;;;;;;30.81;42.83;99371.16;7741415;32;39958;-87
2023/08/26 08:08:47;;;;;;;9.93;4.45;;;;;;;31.14;41.77;99377.22;7739953;32;39972;-89
2023/08/26 08:13:04;;;;;;;11.45;4.00;;;;;;;31.43;41.88;99372.78;7739396;32;38695;-89
2023/08/26 08:17:20;;;;;;;11.80;4.72;;;;;;;31.86;40.53;99364.91;7739717;32;37204;-89
2023/08/26 08:21:37;;;;;;;10.88;4.57;;;;;;;31.89;41.23;99359.25;7739965;32;39550;-88
2023/08/26 08:25:53;;;;;;;9.13;4.90;;;;;;;32.45;39.85;99358.69;7739869;32;40791;-88
2023/08/26 08:30:10;;;;;;;15.25;4.37;;;;;;;32.47;38.25;99361.84;7740162;32;36200;-88
2023/08/26 08:34:26;;;;;;;8.70;4.60;;;;;;;32.21;40.15;99357.12;7739718;32;37054;-89
2023/08/26 08:38:43;;;;;;;10.57;4.22;;;;;;;32.56;38.16;99361.28;7738544;32;40144;-90
2023/08/26 08:43:00;;;;;;;10.93;4.40;;;;;;;32.70;37.85;99363.88;7739908;32;40877;-87
2023/08/26 08:47:17;;;;;;;10.40;4.37;;;;;;;32.95;37.45;99354.09;7755120;32;38837;-88
2023/08/26 08:51:36;;;;;;;8.07;4.78;;;;;;;33.20;37.88;99350.78;7746552;32;38095;-88
2023/08/26 08:55:53;;;;;;;10.23;4.70;;;;;;;33.40;36.72;99344.28;7739676;32;39389;-86
2023/08/26 09:00:11;;;;;;;11.10;4.85;;;;;;;33.36;36.98;99340.72;7739500;32;39585;-87
2023/08/26 09:04:28;;;;;;;10.60;5.05;;;;;;;33.73;36.34;99342.28;7771189;32;38039;-88
2023/08/26 09:08:45;;;;;;;9.73;5.28;;;;;;;33.78;33.15;99343.81;7766204;32;37133;-87
2023/08/26 09:13:03;;;;;;;9.27;4.75;;;;;;;33.75;32.64;99336.22;7766170;32;40048;-85
2023/08/26 09:17:20;;;;;;;9.48;5.05;;;;;;;33.90;32.24;99337.44;7765741;32;39861;-87
2023/08/26 09:21:46;;;;;;;9.55;4.55;;;;;;;34.03;32.90;99334.69;7766023;32;38474;-87
2023/08/26 09:26:03;;;;;;;7.65;4.68;;;;;;;33.57;33.55;99322.50;7766233;32;37892;-88
2023/08/26 09:30:20;;;;;;;9.85;4.75;;;;;;;33.91;32.97;99324.91;7764745;32;40043;-84
2023/08/26 09:34:37;;;;;;;7.87;4.55;;;;;;;34.12;32.24;99336.91;7765947;32;39730;-89
2023/08/26 09:38:53;;;;;;;13.02;5.47;;;;;;;33.78;32.61;99329.69;7765866;32;37959;-89
2023/08/26 09:43:09;;;;;;;9.38;5.40;;;;;;;34.07;32.81;99334.59;7765942;32;37093;-87
2023/08/26 09:47:29;;;;;;;11.60;5.10;;;;;;;34.23;32.41;99323.28;7765868;32;39086;-88
2023/08/26 09:51:50;;;;;;;7.55;5.20;;;;;;;34.43;32.94;99323.94;7760412;32;41234;-87
2023/08/26 09:56:07;;;;;;;11.57;5.12;;;;;;;34.30;32.26;99319.47;7743393;32;37889;-84
2023/08/26 10:00:23;;;;;;;9.82;5.37;;;;;;;34.31;32.87;99313.38;7759536;32;37099;-83
2023/08/26 10:04:40;;;;;;;12.73;5.80;;;;;;;34.19;32.52;99302.78;7738537;32;39104;-85
2023/08/26 10:09:28;;;;;;;9.63;5.22;;;;;;;34.95;32.10;99301.47;7738560;32;39838;-84
2023/08/26 10:13:48;;;;;;;19.73;5.87;;;;;;;34.94;31.07;99302.69;7729716;32;38567;-84
2023/08/26 10:18:17;;;;;;;10.75;5.40;;;;;;;34.99;31.00;99293.66;7750873;32;38161;-83
2023/08/26 10:22:35;;;;;;;13.95;5.87;;;;;;;35.05;31.02;99288.22;7750355;32;39190;-83
2023/08/26 10:26:52;;;;;;;11.18;5.78;;;;;;;34.29;31.28;99296.06;7749806;32;42378;-83
2023/08/26 10:31:08;;;;;;;13.05;6.00;;;;;;;34.65;31.59;99285.75;7744365;32;37680;-85
2023/08/26 10:35:27;;;;;;;16.65;5.90;;;;;;;34.87;30.71;99280.28;7750151;32;37213;-82
2023/08/26 10:39:44;;;;;;;17.05;6.55;;;;;;;34.87;30.96;99271.78;7751679;32;38421;-82
2023/08/26 10:44:01;;;;;;;15.02;6.18;;;;;;;34.89;31.16;99269.28;7750122;32;39622;-82
2023/08/26 10:48:18;;;;;;;12.48;6.00;;;;;;;35.07;30.89;99275.19;7750190;32;36668;-82
2023/08/26 10:52:35;;;;;;;11.95;7.00;;;;;;;35.82;30.58;99269.16;7750058;32;37244;-83
2023/08/26 10:57:07;;;;;;;10.93;7.05;;;;;;;35.72;29.71;99262.63;7748643;32;39477;-85
2023/08/26 11:01:23;;;;;;;12.93;7.18;;;;;;;35.43;30.52;99268.41;7736793;32;40752;-84
2023/08/26 11:05:44;;;;;;;12.27;6.85;;;;;;;35.37;30.33;99264.56;7737891;32;38147;-86
2023/08/26 11:10:01;;;;;;;14.73;6.83;;;;;;;35.81;31.14;99259.06;7738173;32;37904;-84
2023/08/26 11:14:17;;;;;;;9.20;6.37;;;;;;;35.76;30.29;99270.22;7747265;32;39234;-83
2023/08/26 11:18:33;;;;;;;11.65;7.03;;;;;;;36.21;29.54;99258.50;7750106;32;39590;-81
2023/08/26 11:22:50;;;;;;;15.82;6.57;;;;;;;36.19;29.53;99243.19;7749659;32;37647;-84
2023/08/26 11:27:10;;;;;;;10.40;5.90;;;;;;;36.72;29.11;99250.97;7750898;32;37197;-83
2023/08/26 11:31:26;;;;;;;15.77;7.05;;;;;;;36.99;28.58;99256.78;7750423;32;39221;-84
2023/08/26 11:35:47;;;;;;;19.05;6.45;;;;;;;37.33;28.39;99255.06;7736462;32;40423;-82
2023/08/26 11:40:18;;;;;;;12.00;7.05;;;;;;;37.05;28.68;99257.00;7747339;32;37651;-84
2023/08/26 11:44:37;;;;;;;12.30;7.28;;;;;;;36.78;28.84;99255.59;7748773;32;37377;-83
2023/08/26 11:48:54;;;;;;;12.75;6.78;;;;;;;37.67;27.56;99256.13;7752385;32;39275;-83
2023/08/26 11:53:13;;;;;;;11.95;6.37;;;;;;;37.39;28.25;99258.88;7763737;32;40895;-84
2023/08/26 11:57:36;;;;;;;12.18;6.03;;;;;;;37.74;27.19;99244.44;7758936;32;38590;-83
2023/08/26 12:01:55;;;;;;;;;;;;;;;38.21;27.57;99242.41;7749057;32;37141;-83
2023/08/26 12:06:13;;;;;;;10.68;6.05;;;;;;;38.36;26.89;99225.50;7736877;32;39475;-83
2023/08/26 12:10:29;;;;;;;11.73;6.50;;;;;;;38.16;27.38;99223.13;7748141;32;38869;-83
2023/08/26 12:14:46;;;;;;;12.07;6.20;;;;;;;38.43;25.66;99222.31;7747017;32;37806;-82
2023/08/26 12:19:02;;;;;;;10.88;6.25;;;;;;;38.38;26.08;99219.28;7749029;32;37758;-84
2023/08/26 12:23:19;;;;;;;13.93;6.68;;;;;;;38.58;25.28;99213.12;7762254;32;39513;-83
2023/08/26 12:27:41;;;;;;;12.88;6.28;;;;;;;38.55;25.12;99212.00;7758837;32;40276;-87
2023/08/26 12:31:57;;;;;;;13.13;6.25;;;;;;;38.47;24.75;99203.00;7766346;32;37874;-87
2023/08/26 12:36:14;;;;;;;11.18;6.15;;;;;;;38.75;25.63;99205.78;7737739;32;37364;-87
2023/08/26 12:40:38;;;;;;;10.38;6.12;;;;;;;38.72;25.32;99203.88;7735922;32;39262;-85
2023/08/26 12:44:55;;;;;;;;;;;;;;;38.39;23.48;99198.13;7736790;32;40821;-87
2023/08/26 12:49:11;;;;;;;11.00;6.10;;;;;;;38.73;23.77;99196.94;7747080;32;38986;-88
2023/08/26 12:53:45;;;;;;;12.80;5.72;;;;;;;38.25;24.85;99191.81;7751336;32;37177;-87
2023/08/26 12:58:06;;;;;;;12.20;6.22;;;;;;;38.46;24.30;99190.06;7752014;32;40203;-87
2023/08/26 13:02:23;;;;;;;12.13;6.53;;;;;;;36.88;26.58;99193.16;7751836;32;38605;-86
2023/08/26 13:06:39;;;;;;;10.43;6.40;;;;;;;37.70;25.38;99186.91;7752090;32;37809;-86
2023/08/26 13:10:56;;;;;;;9.90;6.35;;;;;;;38.36;24.56;99174.25;7751203;32;37441;-85
2023/08/26 13:15:13;;;;;;;11.32;6.68;;;;;;;38.37;24.28;99172.19;7750970;32;39324;-84
2023/08/26 13:19:30;;;;;;;12.93;7.15;;;;;;;38.38;24.31;99170.91;7752282;32;40824;-86
2023/08/26 13:23:47;;;;;;;10.30;6.20;;;;;;;38.09;24.48;99158.78;7751219;32;37924;-87
2023/08/26 13:28:05;;;;;;;9.02;5.93;;;;;;;38.30;24.93;99170.47;7751439;32;37774;-86
2023/08/26 13:32:21;;;;;;;15.15;6.25;;;;;;;38.49;24.34;99166.28;7751277;32;39319;-85
2023/08/26 13:36:38;;;;;;;11.52;6.75;;;;;;;38.37;26.25;99158.75;7752305;32;39992;-86
2023/08/26 13:41:08;;;;;;;11.77;6.35;;;;;;;39.10;24.41;99150.41;7751753;32;36652;-84
2023/08/26 13:45:27;;;;;;;;;;;;;;;39.44;24.71;99146.22;7750232;32;37883;-86
2023/08/26 13:49:44;;;;;;;10.05;6.07;;;;;;;39.67;23.47;99158.12;7750605;32;39989;-84
2023/08/26 13:54:02;;;;;;;10.45;6.60;;;;;;;39.09;23.65;99151.72;7755307;32;40653;-84
2023/08/26 13:58:21;;;;;;;14.70;7.07;;;;;;;38.50;24.46;99147.94;7750821;32;37904;-84
2023/08/26 14:02:42;;;;;;;15.23;7.22;;;;;;;38.59;24.60;99146.38;7750933;32;37122;-84
2023/08/26 14:07:01;;;;;;;13.88;6.72;;;;;;;38.02;25.87;99147.72;7751345;32;39844;-86
2023/08/26 14:11:19;;;;;;;20.25;7.05;;;;;;;37.87;25.82;99143.94;7750527;32;39731;-84
2023/08/26 14:15:49;;;;;;;8.07;5.57;;;;;;;37.84;25.77;99142.06;7751358;32;37694;-83
2023/08/26 14:20:20;;;;;;;11.02;6.25;;;;;;;37.78;25.79;99136.22;7750407;32;36850;-86
2023/08/26 14:24:37;;;;;;;10.82;6.20;;;;;;;38.34;25.29;99142.63;7750317;32;40103;-87
2023/08/26 14:28:54;;;;;;;10.50;6.40;;;;;;;37.92;25.99;99141.25;7737369;32;38641;-87
2023/08/26 14:33:10;;;;;;;15.30;6.28;;;;;;;38.09;25.44;99141.69;7737146;32;38667;-86
2023/08/26 14:37:28;;;;;;;13.93;6.18;;;;;;;38.08;25.60;99142.19;7738196;32;38960;-87
2023/08/26 14:41:45;;;;;;;10.68;6.05;;;;;;;38.32;25.11;99139.47;7738075;32;40110;-84
2023/08/26 14:46:01;;;;;;;18.77;6.45;;;;;;;38.37;25.12;99138.03;7737644;32;40704;-84
2023/08/26 14:50:18;;;;;;;15.80;6.62;;;;;;;38.16;25.10;99140.63;7758001;32;37647;-85
2023/08/26 14:54:34;;;;;;;9.48;6.28;;;;;;;38.25;24.81;99142.66;7744697;32;36885;-85
2023/08/26 14:58:52;;;;;;;10.50;6.10;;;;;;;38.08;25.41;99134.41;7750156;32;39310;-84
2023/08/26 15:03:09;;;;;;;10.70;6.15;;;;;;;38.13;25.12;99128.12;7749175;32;39927;-85
2023/08/26 15:07:27;;;;;;;10.60;6.37;;;;;;;38.00;25.72;99130.34;7748888;32;37891;-84
2023/08/26 15:11:44;;;;;;;14.30;6.10;;;;;;;38.01;26.24;99131.13;7735907;32;37214;-84
2023/08/26 15:16:03;;;;;;;11.48;5.85;;;;;;;38.54;24.75;99132.75;7740387;32;39205;-84
2023/08/26 15:20:21;;;;;;;12.80;6.07;;;;;;;38.47;24.93;99128.97;7751959;32;39000;-84
2023/08/26 15:24:39;;;;;;;12.20;6.47;;;;;;;38.27;25.17;99125.88;7749028;32;37920;-87
2023/08/26 15:28:57;;;;;;;10.18;6.22;;;;;;;38.26;25.63;99119.41;7746968;32;37773;-84
2023/08/26 15:33:15;;;;;;;13.25;5.82;;;;;;;38.32;25.82;99113.84;7747787;32;38408;-84
2023/08/26 15:37:32;;;;;;;12.20;5.50;;;;;;;37.80;26.55;99115.84;7748399;32;39752;-83
2023/08/26 15:41:49;;;;;;;11.02;6.03;;;;;;;37.99;26.37;99106.00;7748328;32;37595;-83
2023/08/26 15:46:09;;;;;;;11.85;6.22;;;;;;;37.92;27.30;99100.66;7745763;32;37908;-85
2023/08/26 15:50:26;;;;;;;11.93;6.40;;;;;;;37.87;25.87;99104.13;7746271;32;38832;-85
2023/08/26 15:54:43;;;;;;;10.52;6.10;;;;;;;38.10;27.59;99100.63;7745424;32;39603;-87
2023/08/26 15:59:00;;;;;;;14.15;6.62;;;;;;;38.04;26.06;99105.38;7748568;32;38619;-87
2023/08/26 16:03:17;;;;;;;10.18;6.20;;;;;;;37.80;26.58;99099.56;7734537;32;37203;-87
2023/08/26 16:07:35;;;;;;;13.98;6.75;;;;;;;37.74;26.16;99095.78;7734304;32;39398;-86
2023/08/26 16:11:54;;;;;;;14.18;6.62;;;;;;;37.27;26.77;99083.59;7733245;32;39564;-86
2023/08/26 16:16:10;;;;;;;10.30;5.90;;;;;;;37.07;27.03;99074.69;7733863;32;37950;-86
2023/08/26 16:20:27;;;;;;;10.52;6.20;;;;;;;37.16;26.70;99060.53;7734309;32;36798;-86
2023/08/26 16:24:43;;;;;;;10.05;5.47;;;;;;;37.38;26.28;99058.34;7734007;32;39995;-86
2023/08/26 16:29:00;;;;;;;13.55;5.82;;;;;;;37.32;26.52;99054.53;7737379;32;40617;-86
2023/08/26 16:33:16;;;;;;;11.48;6.37;;;;;;;37.03;26.76;99052.94;7750559;32;37694;-86
2023/08/26 16:37:33;;;;;;;17.40;6.72;;;;;;;36.98;26.55;99050.72;7766210;32;37244;-89
2023/08/26 16:41:49;;;;;;;10.63;6.05;;;;;;;36.73;26.60;99042.47;7764541;32;40043;-85
2023/08/26 16:46:07;;;;;;;11.70;6.05;;;;;;;36.74;26.79;99044.03;7765058;32;39993;-82
2023/08/26 16:50:24;;;;;;;15.68;6.50;;;;;;;36.97;26.39;99046.28;7766634;32;37925;-84
2023/08/26 16:54:40;;;;;;;10.93;5.93;;;;;;;36.56;27.13;99048.37;7763787;32;37102;-84
2023/08/26 16:58:57;;;;;;;16.48;6.50;;;;;;;36.86;26.91;99037.44;7752747;32;39519;-93
2023/08/26 17:03:14;;;;;;;16.10;7.03;;;;;;;36.43;28.59;99042.03;7749726;32;40025;-86
2023/08/26 17:07:31;;;;;;;14.90;6.47;;;;;;;36.42;29.27;99041.22;7752523;32;38437;-86
2023/08/26 17:11:47;;;;;;;10.45;6.18;;;;;;;36.45;29.12;99039.53;7766295;32;37842;-86
2023/08/26 17:16:06;;;;;;;17.52;8.05;;;;;;;36.12;29.97;99033.50;7765258;32;39895;-86
2023/08/26 17:20:23;;;;;;;12.70;7.00;;;;;;;36.31;29.96;99035.22;7748301;32;40025;-85
2023/08/26 17:24:41;;;;;;;14.43;6.60;;;;;;;36.17;30.11;99042.22;7755433;32;38563;-85
2023/08/26 17:29:03;;;;;;;14.35;6.95;;;;;;;35.85;29.65;99032.91;7775562;32;37546;-85
2023/08/26 17:33:20;;;;;;;11.23;5.55;;;;;;;35.67;29.61;99042.06;7775174;32;39333;-86
2023/08/26 17:37:37;;;;;;;12.13;5.70;;;;;;;35.67;28.44;99049.75;7791816;32;39912;-87
2023/08/26 17:41:56;;;;;;;15.23;6.80;;;;;;;35.42;29.17;99050.69;7773049;32;38479;-87
2023/08/26 17:46:17;;;;;;;19.05;6.32;;;;;;;35.28;29.97;99052.78;7738683;32;37879;-88
2023/08/26 17:50:35;;;;;;;11.10;6.57;;;;;;;35.12;30.16;99058.59;7738827;32;37893;-88
2023/08/26 17:54:53;;;;;;;17.70;10.93;;;;;;;34.84;30.33;99068.84;7738567;32;40862;-88
2023/08/26 17:59:09;;;;;;;14.55;7.00;;;;;;;34.73;30.36;99074.88;7738621;32;39080;-88
2023/08/26 18:03:26;;;;;;;15.55;7.82;;;;;;;34.62;30.42;99092.19;7738524;32;37178;-90
2023/08/26 18:07:43;;;;;;;16.08;6.53;;;;;;;34.39;31.96;99088.44;7738920;32;39578;-88
2023/08/26 18:12:00;;;;;;;16.37;6.65;;;;;;;34.41;31.60;99094.44;7738560;32;40159;-90
2023/08/26 18:16:16;;;;;;;15.27;7.95;;;;;;;34.21;32.02;99096.69;7740902;32;37937;-89
2023/08/26 18:20:36;;;;;;;20.95;11.43;;;;;;;34.24;31.95;99107.09;7755187;32;37197;-90
2023/08/26 18:24:53;;;;;;;11.82;6.95;;;;;;;33.98;32.40;99104.19;7747689;32;38488;-90
2023/08/26 18:29:12;;;;;;;15.80;7.25;;;;;;;33.69;33.59;99109.87;7748980;32;40599;-90
2023/08/26 18:33:28;;;;;;;13.23;7.35;;;;;;;33.52;34.52;99122.44;7743642;32;37730;-89
2023/08/26 18:37:44;;;;;;;11.73;6.90;;;;;;;33.21;35.21;99112.31;7737385;32;37795;-90
2023/08/26 18:42:03;;;;;;;12.88;7.28;;;;;;;32.92;36.15;99115.81;7743141;32;40034;-91
2023/08/26 18:46:19;;;;;;;15.23;7.72;;;;;;;32.79;36.64;99142.38;7739207;32;39066;-90
2023/08/26 18:50:36;;;;;;;20.37;7.47;;;;;;;32.57;36.96;99143.62;7745339;32;37841;-89
2023/08/26 18:54:55;;;;;;;15.02;7.07;;;;;;;32.43;37.29;99143.97;7737366;32;38108;-90
2023/08/26 18:59:13;;;;;;;11.88;6.50;;;;;;;32.23;37.53;99143.97;7744623;32;39288;-90
2023/08/26 19:03:31;;;;;;;12.85;6.75;;;;;;;32.23;37.59;99146.00;7742990;32;39924;-89
2023/08/26 19:07:48;;;;;;;11.35;6.00;;;;;;;32.16;37.79;99147.75;7759013;32;37806;-89
2023/08/26 19:12:05;;;;;;;12.27;6.32;;;;;;;32.15;37.35;99149.00;7759595;32;36957;-88
2023/08/26 19:16:22;;;;;;;12.15;5.75;;;;;;;32.02;37.46;99153.66;7760911;32;39471;-87
2023/08/26 19:20:39;;;;;;;13.52;5.40;;;;;;;32.00;37.39;99148.44;7745415;32;39870;-89
2023/08/26 19:24:55;;;;;;;13.43;5.90;;;;;;;32.02;36.67;99142.38;7736963;32;38867;-89
2023/08/26 19:29:13;;;;;;;13.98;5.85;;;;;;;31.98;37.06;99138.84;7747421;32;37182;-89
2023/08/26 19:33:29;;;;;;;9.43;4.95;;;;;;;31.91;37.06;99133.31;7756163;32;39326;-89
2023/08/26 19:37:46;;;;;;;13.13;6.72;;;;;;;31.95;36.43;99131.25;7761877;32;40691;-89
2023/08/26 19:42:03;;;;;;;9.40;5.93;;;;;;;31.42;37.82;99126.16;7748741;32;37902;-89
2023/08/26 19:46:19;;;;;;;16.95;7.20;;;;;;;31.54;37.61;99135.25;7744793;32;37049;-90
2023/08/26 19:50:38;;;;;;;10.07;5.82;;;;;;;31.49;37.31;99116.00;7750641;32;39223;-87
2023/08/26 19:55:00;;;;;;;13.25;5.93;;;;;;;31.53;37.71;99119.56;7763181;32;40166;-90
2023/08/26 19:59:26;;;;;;;16.42;6.87;;;;;;;31.44;36.95;99109.66;7747528;32;37872;-90
2023/08/26 20:03:45;;;;;;;12.73;5.93;;;;;;;31.56;36.07;99104.63;7751388;32;36948;-89